Time;durP1;ratioP1;P1;durP2;ratioP2;P2;SDS_P1;SDS_P2;PMS_P1;PMS_P2;Temp;Humidity;BMP_temperature;BMP_pressure;BME280_temperature;BME280_humidity;BME280_pressure;Samples;Min_cycle;Max_cycle;Signal;HPM_P1;HPM_P2
2022/10/22 00:01:23;;;;;;;38.23;22.33;;;;;;;;;;4454543;32;20216;-86
2022/10/22 00:03:50;;;;;;;30.40;21.63;;;;;;;;;;4453945;32;20224;-86
2022/10/22 00:06:17;;;;;;;29.87;20.00;;;;;;;;;;4454469;32;20272;-85
2022/10/22 00:08:43;;;;;;;22.73;17.07;;;;;;;;;;4454069;32;20661;-85
2022/10/22 00:11:13;;;;;;;27.10;18.00;;;;;;;;;;4454582;32;20212;-85
2022/10/22 00:13:41;;;;;;;24.13;17.30;;;;;;;;;;4454054;32;20225;-85
2022/10/22 00:16:09;;;;;;;26.53;14.10;;;;;;;;;;4454535;32;20230;-85
2022/10/22 00:18:37;;;;;;;17.77;13.07;;;;;;;;;;4454002;32;20281;-85
2022/10/22 00:21:04;;;;;;;18.47;13.53;;;;;;;;;;4454673;32;20220;-86
2022/10/22 00:23:30;;;;;;;17.57;12.73;;;;;;;;;;4455254;32;20224;-87
2022/10/22 00:25:57;;;;;;;23.10;16.73;;;;;;;;;;4457344;32;20265;-85
2022/10/22 00:28:24;;;;;;;19.13;14.97;;;;;;;;;;4457583;32;20293;-86
2022/10/22 00:30:56;;;;;;;24.03;14.17;;;;;;;;;;4456168;32;20213;-86
2022/10/22 00:33:25;;;;;;;24.63;14.53;;;;;;;;;;4455819;32;20228;-86
2022/10/22 00:35:51;;;;;;;22.67;13.80;;;;;;;;;;4456047;32;20249;-86
2022/10/22 00:38:18;;;;;;;24.73;16.43;;;;;;;;;;4454157;32;20661;-86
2022/10/22 00:40:45;;;;;;;27.00;16.57;;;;;;;;;;4453609;32;20212;-85
2022/10/22 00:43:13;;;;;;;24.40;15.93;;;;;;;;;;4453401;32;20224;-85
2022/10/22 00:45:40;;;;;;;19.77;15.27;;;;;;;;;;4453533;32;20212;-85
2022/10/22 00:48:10;;;;;;;20.80;15.50;;;;;;;;;;4453278;32;20328;-86
2022/10/22 00:50:43;;;;;;;23.20;15.10;;;;;;;;;;4453524;32;20276;-86
2022/10/22 00:53:14;;;;;;;27.23;18.03;;;;;;;;;;4453365;32;20300;-86
2022/10/22 00:55:43;;;;;;;21.93;16.40;;;;;;;;;;4453515;32;20265;-86
2022/10/22 00:58:10;;;;;;;32.80;19.13;;;;;;;;;;4453249;32;20269;-85
2022/10/22 01:00:37;;;;;;;32.77;22.70;;;;;;;;;;4453359;32;20208;-86
2022/10/22 01:03:04;;;;;;;29.03;18.93;;;;;;;;;;4452907;32;20565;-86
2022/10/22 01:05:34;;;;;;;29.43;18.30;;;;;;;;;;4453337;32;20270;-86
2022/10/22 01:08:03;;;;;;;28.43;17.40;;;;;;;;;;4453151;32;20242;-86
2022/10/22 01:10:46;;;;;;;20.93;15.83;;;;;;;;;;4453322;32;20343;-86
2022/10/22 01:13:27;;;;;;;23.30;16.30;;;;;;;;;;4453626;32;20220;-86
2022/10/22 01:16:00;;;;;;;26.17;17.77;;;;;;;;;;4454692;32;20579;-86
2022/10/22 01:18:36;;;;;;;28.43;19.20;;;;;;;;;;4453762;32;20243;-86
2022/10/22 01:21:18;;;;;;;24.90;18.10;;;;;;;;;;4453638;32;20212;-86
2022/10/22 01:24:12;;;;;;;22.17;15.23;;;;;;;;;;4452833;32;20220;-86
2022/10/22 01:27:03;;;;;;;20.70;15.67;;;;;;;;;;4453214;32;20212;-86
2022/10/22 01:29:37;;;;;;;22.07;15.97;;;;;;;;;;4452664;32;20312;-86
2022/10/22 01:32:08;;;;;;;20.47;15.37;;;;;;;;;;4452890;32;20226;-86
2022/10/22 01:34:39;;;;;;;22.20;14.97;;;;;;;;;;4452530;32;20672;-86
2022/10/22 01:37:06;;;;;;;19.90;15.47;;;;;;;;;;4453202;32;20617;-86
2022/10/22 01:39:35;;;;;;;20.30;16.10;;;;;;;;;;4452540;32;20217;-86
2022/10/22 01:42:02;;;;;;;26.10;15.80;;;;;;;;;;4453001;32;20216;-86
2022/10/22 01:44:31;;;;;;;22.43;14.67;;;;;;;;;;4452495;32;20237;-86
2022/10/22 01:47:14;;;;;;;18.87;13.73;;;;;;;;;;4453141;32;20686;-86
2022/10/22 01:49:58;;;;;;;19.60;13.67;;;;;;;;;;4452494;32;20367;-86
2022/10/22 01:52:35;;;;;;;17.37;12.63;;;;;;;;;;4453042;32;20242;-86
2022/10/22 01:55:19;;;;;;;20.20;12.83;;;;;;;;;;4453042;32;20208;-85
2022/10/22 01:57:52;;;;;;;16.47;13.30;;;;;;;;;;4452822;32;20526;-85
2022/10/22 02:00:20;;;;;;;18.57;12.40;;;;;;;;;;4452970;32;20293;-85
2022/10/22 02:02:57;;;;;;;20.00;14.53;;;;;;;;;;4452259;32;20220;-85
2022/10/22 02:05:32;;;;;;;32.27;16.53;;;;;;;;;;4452866;32;20208;-85
2022/10/22 02:08:04;;;;;;;19.63;13.67;;;;;;;;;;4452684;32;20219;-85
2022/10/22 02:10:31;;;;;;;23.30;14.13;;;;;;;;;;4452884;32;20697;-85
2022/10/22 02:13:00;;;;;;;18.67;15.00;;;;;;;;;;4452647;32;20224;-85
2022/10/22 02:15:28;;;;;;;22.10;14.57;;;;;;;;;;4452375;32;20213;-85
2022/10/22 02:17:59;;;;;;;25.23;16.30;;;;;;;;;;4452602;32;20253;-85
2022/10/22 02:20:29;;;;;;;24.37;17.10;;;;;;;;;;4452802;32;20213;-85
2022/10/22 02:22:57;;;;;;;23.00;16.57;;;;;;;;;;4452673;32;20246;-85
2022/10/22 02:25:29;;;;;;;27.30;17.93;;;;;;;;;;4452712;32;20205;-85
2022/10/22 02:28:02;;;;;;;28.27;17.77;;;;;;;;;;4452603;32;20300;-86
2022/10/22 02:30:29;;;;;;;28.83;18.47;;;;;;;;;;4455099;32;20209;-86
2022/10/22 02:33:02;;;;;;;24.77;17.17;;;;;;;;;;4454879;32;20240;-86
2022/10/22 02:35:30;;;;;;;25.93;18.30;;;;;;;;;;4455517;32;20216;-86
2022/10/22 02:37:58;;;;;;;29.17;19.80;;;;;;;;;;4455255;32;20687;-86
2022/10/22 02:40:26;;;;;;;68.63;34.23;;;;;;;;;;4454832;32;20220;-86
2022/10/22 02:42:53;;;;;;;62.37;38.37;;;;;;;;;;4455158;32;20228;-86
2022/10/22 02:45:20;;;;;;;33.50;22.90;;;;;;;;;;4455247;32;20557;-86
2022/10/22 02:47:47;;;;;;;28.77;19.60;;;;;;;;;;4454675;32;20212;-86
2022/10/22 02:50:16;;;;;;;33.40;19.57;;;;;;;;;;4455213;32;20625;-86
2022/10/22 02:52:42;;;;;;;27.03;18.60;;;;;;;;;;4455116;32;20260;-85
2022/10/22 02:55:12;;;;;;;23.03;17.93;;;;;;;;;;4455099;32;20242;-85
2022/10/22 02:57:39;;;;;;;30.80;19.50;;;;;;;;;;4454422;32;20230;-85
2022/10/22 03:00:07;;;;;;;30.63;20.33;;;;;;;;;;4454900;32;20250;-85
2022/10/22 03:02:34;;;;;;;33.37;21.37;;;;;;;;;;4454779;32;20223;-85
2022/10/22 03:05:01;;;;;;;32.47;22.07;;;;;;;;;;4454970;32;20299;-85
2022/10/22 03:07:29;;;;;;;25.40;18.73;;;;;;;;;;4455024;32;20261;-85
2022/10/22 03:09:56;;;;;;;31.67;19.93;;;;;;;;;;4454964;32;20209;-85
2022/10/22 03:12:22;;;;;;;26.77;19.00;;;;;;;;;;4454929;32;20220;-85
2022/10/22 03:14:49;;;;;;;30.43;19.33;;;;;;;;;;4454282;32;20285;-85
2022/10/22 03:17:16;;;;;;;27.53;18.53;;;;;;;;;;4454844;32;20280;-85
2022/10/22 03:19:43;;;;;;;23.77;18.17;;;;;;;;;;4454267;32;20285;-85
2022/10/22 03:22:13;;;;;;;28.60;19.47;;;;;;;;;;4454984;32;20220;-85
2022/10/22 03:24:44;;;;;;;32.17;18.37;;;;;;;;;;4454224;32;20269;-85
2022/10/22 03:27:12;;;;;;;27.90;17.20;;;;;;;;;;4454747;32;20267;-85
2022/10/22 03:29:40;;;;;;;26.97;19.13;;;;;;;;;;4454131;32;20225;-85
2022/10/22 03:32:07;;;;;;;28.13;18.10;;;;;;;;;;4454626;32;20204;-85
2022/10/22 03:34:34;;;;;;;24.47;15.53;;;;;;;;;;4454081;32;20220;-85
2022/10/22 03:37:01;;;;;;;29.07;14.67;;;;;;;;;;4454566;32;20221;-85
2022/10/22 03:39:29;;;;;;;19.50;13.33;;;;;;;;;;4454008;32;20278;-85
2022/10/22 03:41:58;;;;;;;26.77;14.23;;;;;;;;;;4453543;32;20576;-85
2022/10/22 03:44:25;;;;;;;17.40;14.27;;;;;;;;;;4453896;32;20228;-85
2022/10/22 03:46:52;;;;;;;20.00;13.20;;;;;;;;;;4454411;32;20276;-85
2022/10/22 03:49:19;;;;;;;24.07;14.57;;;;;;;;;;4453867;32;20243;-86
2022/10/22 03:51:45;;;;;;;24.27;14.43;;;;;;;;;;4454562;32;20216;-85
2022/10/22 03:54:12;;;;;;;18.57;13.87;;;;;;;;;;4454302;32;20284;-85
2022/10/22 03:56:39;;;;;;;21.37;14.23;;;;;;;;;;4454288;32;20269;-84
2022/10/22 03:59:07;;;;;;;20.83;15.60;;;;;;;;;;4454218;32;20594;-85
2022/10/22 04:01:34;;;;;;;21.53;14.97;;;;;;;;;;4454080;32;20265;-85
2022/10/22 04:04:01;;;;;;;21.40;14.53;;;;;;;;;;4454145;32;20223;-85
2022/10/22 04:06:30;;;;;;;23.20;16.50;;;;;;;;;;4454112;32;20583;-85
2022/10/22 04:08:57;;;;;;;29.33;20.53;;;;;;;;;;4453680;32;20224;-85
2022/10/22 04:11:23;;;;;;;34.03;21.13;;;;;;;;;;4454273;32;20268;-85
2022/10/22 04:13:50;;;;;;;33.03;23.10;;;;;;;;;;4453576;32;20295;-85
2022/10/22 04:16:20;;;;;;;38.63;24.10;;;;;;;;;;4454011;32;20220;-85
2022/10/22 04:18:48;;;;;;;34.97;26.80;;;;;;;;;;4453618;32;20224;-85
2022/10/22 04:21:19;;;;;;;38.20;25.30;;;;;;;;;;4454996;32;20234;-85
2022/10/22 04:23:47;;;;;;;38.93;25.67;;;;;;;;;;4455214;32;20228;-86
2022/10/22 04:26:15;;;;;;;37.67;27.53;;;;;;;;;;4453940;32;20273;-85
2022/10/22 04:28:42;;;;;;;36.03;23.43;;;;;;;;;;4453802;32;20416;-85
2022/10/22 04:31:10;;;;;;;35.47;22.53;;;;;;;;;;4453780;32;20208;-85
2022/10/22 04:33:38;;;;;;;29.13;21.73;;;;;;;;;;4453311;32;20363;-85
2022/10/22 04:36:09;;;;;;;24.70;19.40;;;;;;;;;;4454045;32;20222;-85
2022/10/22 04:38:35;;;;;;;35.40;22.00;;;;;;;;;;4453416;32;20752;-85
2022/10/22 04:41:13;;;;;;;28.63;21.33;;;;;;;;;;4453556;32;20274;-85
2022/10/22 04:43:41;;;;;;;26.80;19.53;;;;;;;;;;4453290;32;20225;-85
2022/10/22 04:46:09;;;;;;;26.93;20.60;;;;;;;;;;4453533;32;20273;-85
2022/10/22 04:48:35;;;;;;;30.60;20.03;;;;;;;;;;4453336;32;20622;-85
2022/10/22 04:51:05;;;;;;;25.47;18.87;;;;;;;;;;4453476;32;20294;-85
2022/10/22 04:53:32;;;;;;;28.47;17.83;;;;;;;;;;4452738;32;20307;-85
2022/10/22 04:56:07;;;;;;;27.50;18.13;;;;;;;;;;4453483;32;20225;-85
2022/10/22 04:58:34;;;;;;;30.23;18.70;;;;;;;;;;4453068;32;20228;-85
2022/10/22 05:01:01;;;;;;;22.73;17.67;;;;;;;;;;4453290;32;20216;-85
2022/10/22 05:03:28;;;;;;;37.03;18.77;;;;;;;;;;4453154;32;20228;-85
2022/10/22 05:05:55;;;;;;;25.67;19.37;;;;;;;;;;4453367;32;20208;-85
2022/10/22 05:08:23;;;;;;;31.47;20.57;;;;;;;;;;4452955;32;20768;-85
2022/10/22 05:10:49;;;;;;;25.77;17.97;;;;;;;;;;4452873;32;20221;-85
2022/10/22 05:13:16;;;;;;;24.63;17.63;;;;;;;;;;4452976;32;20300;-85
2022/10/22 05:15:43;;;;;;;26.00;17.03;;;;;;;;;;4453150;32;20204;-85
2022/10/22 05:18:10;;;;;;;32.37;18.40;;;;;;;;;;4452940;32;20246;-85
2022/10/22 05:20:40;;;;;;;32.60;22.83;;;;;;;;;;4453118;32;20260;-85
2022/10/22 05:23:06;;;;;;;32.47;22.57;;;;;;;;;;4452565;32;20699;-85
2022/10/22 05:25:38;;;;;;;34.93;21.57;;;;;;;;;;4453043;32;20214;-85
2022/10/22 05:28:05;;;;;;;35.57;21.07;;;;;;;;;;4453112;32;20243;-85
2022/10/22 05:30:32;;;;;;;28.83;21.23;;;;;;;;;;4452932;32;20783;-85
2022/10/22 05:32:59;;;;;;;34.73;21.43;;;;;;;;;;4452470;32;20285;-85
2022/10/22 05:35:26;;;;;;;28.23;20.13;;;;;;;;;;4453056;32;20208;-85
2022/10/22 05:37:52;;;;;;;22.67;19.33;;;;;;;;;;4452773;32;20229;-85
2022/10/22 05:40:19;;;;;;;28.83;18.80;;;;;;;;;;4453005;32;20242;-85
2022/10/22 05:42:47;;;;;;;24.80;18.77;;;;;;;;;;4452651;32;20212;-85
2022/10/22 05:45:14;;;;;;;21.77;17.27;;;;;;;;;;4452856;32;20261;-85
2022/10/22 05:47:41;;;;;;;36.83;20.57;;;;;;;;;;4452775;32;20204;-85
2022/10/22 05:50:08;;;;;;;33.93;23.10;;;;;;;;;;4452972;32;20208;-85
2022/10/22 05:52:35;;;;;;;30.40;22.63;;;;;;;;;;4452652;32;20208;-85
2022/10/22 05:55:02;;;;;;;32.27;24.63;;;;;;;;;;4439014;32;20292;-85
2022/10/22 05:57:28;;;;;;;40.13;22.13;;;;;;;;;;4452278;32;20512;-85
2022/10/22 05:59:57;;;;;;;36.47;23.03;;;;;;;;;;4452844;32;20708;-85
2022/10/22 06:02:23;;;;;;;33.93;22.73;;;;;;;;;;4453136;32;20212;-85
2022/10/22 06:04:50;;;;;;;33.17;23.23;;;;;;;;;;4455045;32;20649;-86
2022/10/22 06:07:17;;;;;;;35.83;25.30;;;;;;;;;;4456065;32;20257;-84
2022/10/22 06:09:44;;;;;;;34.47;25.97;;;;;;;;;;4455813;32;20228;-84
2022/10/22 06:12:12;;;;;;;41.43;27.10;;;;;;;;;;4456200;32;20221;-84
2022/10/22 06:14:39;;;;;;;38.83;26.07;;;;;;;;;;4455230;32;20236;-85
2022/10/22 06:17:07;;;;;;;38.03;26.73;;;;;;;;;;4455654;32;20553;-85
2022/10/22 06:19:34;;;;;;;46.47;28.73;;;;;;;;;;4455045;32;20236;-85
2022/10/22 06:22:01;;;;;;;42.33;26.03;;;;;;;;;;4455384;32;20212;-85
2022/10/22 06:24:27;;;;;;;47.60;28.40;;;;;;;;;;4455047;32;20224;-86
2022/10/22 06:26:54;;;;;;;41.90;28.40;;;;;;;;;;4455546;32;20221;-85
2022/10/22 06:29:21;;;;;;;43.63;30.10;;;;;;;;;;4454673;32;20607;-85
2022/10/22 06:31:48;;;;;;;48.60;28.37;;;;;;;;;;4455445;32;20261;-85
2022/10/22 06:34:17;;;;;;;42.40;28.10;;;;;;;;;;4439163;32;20558;-85
2022/10/22 06:36:44;;;;;;;38.20;24.70;;;;;;;;;;4439883;32;20225;-84
2022/10/22 06:39:12;;;;;;;50.97;28.97;;;;;;;;;;4439331;32;20224;-84
2022/10/22 06:41:39;;;;;;;46.07;34.00;;;;;;;;;;4439266;32;20221;-84
2022/10/22 06:44:13;;;;;;;41.83;30.10;;;;;;;;;;4439376;32;20232;-84
2022/10/22 06:46:40;;;;;;;39.40;29.53;;;;;;;;;;4439831;32;20632;-84
2022/10/22 06:49:07;;;;;;;42.50;27.90;;;;;;;;;;4439051;32;20285;-84
2022/10/22 06:51:35;;;;;;;46.37;27.60;;;;;;;;;;4439660;32;20220;-84
2022/10/22 06:54:02;;;;;;;36.27;24.37;;;;;;;;;;4439580;32;20225;-84
2022/10/22 06:56:28;;;;;;;32.10;24.57;;;;;;;;;;4439685;32;20221;-84
2022/10/22 06:58:57;;;;;;;38.53;23.90;;;;;;;;;;4439259;32;20691;-84
2022/10/22 07:01:25;;;;;;;30.47;25.23;;;;;;;;;;4439134;32;20629;-84
2022/10/22 07:03:53;;;;;;;37.93;25.60;;;;;;;;;;4439214;32;20297;-85
2022/10/22 07:06:21;;;;;;;41.67;24.97;;;;;;;;;;4438971;32;20603;-85
2022/10/22 07:08:49;;;;;;;34.63;27.10;;;;;;;;;;4439122;32;20233;-85
2022/10/22 07:11:17;;;;;;;41.27;27.50;;;;;;;;;;4439000;32;20598;-85
2022/10/22 07:13:45;;;;;;;38.67;24.33;;;;;;;;;;4439033;32;20228;-85
2022/10/22 07:16:12;;;;;;;45.13;26.13;;;;;;;;;;4438635;32;20221;-85
2022/10/22 07:18:40;;;;;;;25.90;20.60;;;;;;;;;;4438716;32;20347;-86
2022/10/22 07:21:09;;;;;;;29.27;23.73;;;;;;;;;;4438846;32;20258;-85
2022/10/22 07:23:36;;;;;;;33.40;22.77;;;;;;;;;;4438764;32;20241;-85
2022/10/22 07:26:06;;;;;;;32.47;21.33;;;;;;;;;;4439763;32;20308;-85
2022/10/22 07:28:33;;;;;;;41.07;22.10;;;;;;;;;;4440749;32;20804;-85
2022/10/22 07:31:00;;;;;;;29.57;19.87;;;;;;;;;;4440318;32;20247;-85
2022/10/22 07:33:27;;;;;;;27.97;19.00;;;;;;;;;;4449539;32;20220;-85
2022/10/22 07:35:58;;;;;;;27.57;18.27;;;;;;;;;;4453903;32;20590;-87
2022/10/22 07:38:28;;;;;;;31.87;17.93;;;;;;;;;;4454534;32;20212;-85
2022/10/22 07:40:55;;;;;;;24.30;19.50;;;;;;;;;;4454638;32;20606;-85
2022/10/22 07:43:24;;;;;;;23.23;18.00;;;;;;;;;;4454177;32;20556;-85
2022/10/22 07:45:51;;;;;;;30.77;16.73;;;;;;;;;;4454020;32;20246;-85
2022/10/22 07:48:17;;;;;;;19.53;14.90;;;;;;;;;;4453949;32;20591;-85
2022/10/22 07:50:44;;;;;;;23.57;14.47;;;;;;;;;;4453775;32;20229;-85
2022/10/22 07:53:11;;;;;;;22.70;15.33;;;;;;;;;;4454235;32;20213;-85
2022/10/22 07:55:38;;;;;;;23.77;16.10;;;;;;;;;;4453755;32;20228;-85
2022/10/22 07:58:04;;;;;;;19.90;15.27;;;;;;;;;;4454269;32;20228;-85
2022/10/22 08:00:32;;;;;;;25.30;15.97;;;;;;;;;;4453768;32;20599;-86
2022/10/22 08:03:00;;;;;;;22.90;14.47;;;;;;;;;;4454293;32;20212;-86
2022/10/22 08:05:26;;;;;;;32.37;14.83;;;;;;;;;;4453702;32;20224;-85
2022/10/22 08:07:53;;;;;;;22.93;15.47;;;;;;;;;;4454059;32;20307;-85
2022/10/22 08:10:20;;;;;;;22.13;14.87;;;;;;;;;;4454058;32;20297;-85
2022/10/22 08:12:47;;;;;;;27.87;15.67;;;;;;;;;;4453947;32;20261;-85
2022/10/22 08:15:13;;;;;;;20.23;13.87;;;;;;;;;;4453646;32;20243;-85
2022/10/22 08:17:41;;;;;;;16.60;13.77;;;;;;;;;;4453931;32;20254;-85
2022/10/22 08:20:09;;;;;;;18.57;15.00;;;;;;;;;;4453631;32;20285;-85
2022/10/22 08:22:36;;;;;;;27.60;20.30;;;;;;;;;;4453708;32;20634;-85
2022/10/22 08:25:03;;;;;;;23.37;13.97;;;;;;;;;;4453763;32;20296;-85
2022/10/22 08:27:29;;;;;;;25.07;16.57;;;;;;;;;;4453758;32;20614;-85
2022/10/22 08:29:56;;;;;;;23.73;11.93;;;;;;;;;;4453629;32;20228;-85
2022/10/22 08:32:23;;;;;;;18.63;12.77;;;;;;;;;;4453378;32;20224;-86
2022/10/22 08:34:54;;;;;;;32.47;21.17;;;;;;;;;;4453510;32;20228;-86
2022/10/22 08:37:20;;;;;;;33.80;26.20;;;;;;;;;;4453909;32;20661;-87
2022/10/22 08:39:47;;;;;;;18.83;14.73;;;;;;;;;;4453618;32;20625;-88
2022/10/22 08:42:35;;;;;;;23.53;18.80;;;;;;;;;;4453798;32;20686;-86
2022/10/22 08:45:11;;;;;;;17.23;10.20;;;;;;;;;;4453632;32;20232;-86
2022/10/22 08:47:52;;;;;;;12.90;10.60;;;;;;;;;;4453847;32;20273;-87
2022/10/22 08:50:26;;;;;;;14.27;10.00;;;;;;;;;;4453638;32;20228;-84
2022/10/22 08:52:59;;;;;;;25.77;12.90;;;;;;;;;;4453656;32;20295;-83
2022/10/22 08:55:26;;;;;;;14.17;9.97;;;;;;;;;;4453224;32;20229;-82
2022/10/22 08:57:59;;;;;;;16.63;9.63;;;;;;;;;;4453510;32;20269;-85
2022/10/22 09:00:34;;;;;;;13.50;9.90;;;;;;;;;;4452606;32;20228;-87
2022/10/22 09:03:19;;;;;;;15.20;10.30;;;;;;;;;;4452988;32;20219;-87
2022/10/22 09:05:55;;;;;;;15.03;9.87;;;;;;;;;;4452880;32;20232;-83
2022/10/22 09:08:23;;;;;;;13.57;8.97;;;;;;;;;;4453337;32;20212;-84
2022/10/22 09:11:01;;;;;;;17.30;10.13;;;;;;;;;;4452921;32;20232;-86
2022/10/22 09:13:29;;;;;;;15.03;10.53;;;;;;;;;;4453255;32;20220;-86
2022/10/22 09:16:01;;;;;;;13.43;10.40;;;;;;;;;;4452783;32;20273;-87
2022/10/22 09:18:36;;;;;;;17.97;11.27;;;;;;;;;;4453108;32;20212;-89
2022/10/22 09:21:20;;;;;;;16.20;10.70;;;;;;;;;;4453098;32;20242;-90
2022/10/22 09:24:02;;;;;;;21.90;11.37;;;;;;;;;;4453485;32;20221;-91
2022/10/22 09:26:28;;;;;;;17.67;10.77;;;;;;;;;;4453678;32;20705;-93
2022/10/22 09:29:00;;;;;;;14.00;10.13;;;;;;;;;;4452861;32;20264;-92
2022/10/22 09:31:30;;;;;;;23.70;12.10;;;;;;;;;;4452522;32;20670;-90
2022/10/22 09:33:58;;;;;;;23.30;12.03;;;;;;;;;;4453078;32;20232;-88
2022/10/22 09:36:29;;;;;;;16.00;10.87;;;;;;;;;;4452567;32;20763;-87
2022/10/22 09:38:56;;;;;;;37.67;13.07;;;;;;;;;;4453706;32;20231;-86
2022/10/22 09:41:26;;;;;;;14.90;12.53;;;;;;;;;;4455816;32;20232;-83
2022/10/22 09:43:53;;;;;;;16.73;11.70;;;;;;;;;;4455723;32;20560;-90
2022/10/22 09:46:21;;;;;;;15.93;11.10;;;;;;;;;;4456288;32;20273;-90
2022/10/22 09:48:50;;;;;;;15.27;11.50;;;;;;;;;;4456135;32;20261;-85
2022/10/22 09:51:20;;;;;;;14.33;11.93;;;;;;;;;;4455586;32;20296;-86
2022/10/22 09:53:56;;;;;;;18.20;11.87;;;;;;;;;;4456046;32;20217;-86
2022/10/22 09:56:27;;;;;;;17.40;11.77;;;;;;;;;;4455613;32;20244;-86
2022/10/22 09:58:56;;;;;;;17.23;11.70;;;;;;;;;;4456094;32;20374;-86
2022/10/22 10:01:26;;;;;;;15.00;12.18;;;;;;;;;;4455346;32;20236;-86
2022/10/22 10:03:53;;;;;;;18.08;12.73;;;;;;;;;;4455840;32;20212;-86
2022/10/22 10:06:21;;;;;;;19.67;11.20;;;;;;;;;;4455122;32;20224;-86
2022/10/22 10:08:50;;;;;;;18.52;15.20;;;;;;;;;;4455744;32;20253;-86
2022/10/22 10:11:23;;;;;;;19.33;14.70;;;;;;;;;;4455321;32;20233;-86
2022/10/22 10:13:57;;;;;;;59.58;36.28;;;;;;;;;;4455751;32;20285;-86
2022/10/22 10:16:34;;;;;;;22.97;15.17;;;;;;;;;;4455324;32;20303;-86
2022/10/22 10:19:20;;;;;;;22.13;13.03;;;;;;;;;;4455751;32;20216;-87
2022/10/22 10:21:58;;;;;;;20.85;12.77;;;;;;;;;;4455118;32;20279;-85
2022/10/22 10:24:35;;;;;;;20.10;12.60;;;;;;;;;;4456247;32;20260;-86
2022/10/22 10:27:08;;;;;;;20.17;11.57;;;;;;;;;;4457400;32;20701;-87
2022/10/22 10:29:46;;;;;;;17.12;12.63;;;;;;;;;;4456777;32;20261;-86
2022/10/22 10:32:27;;;;;;;18.33;11.68;;;;;;;;;;4458896;32;20220;-85
2022/10/22 10:35:01;;;;;;;20.45;11.85;;;;;;;;;;4455178;32;20673;-86
2022/10/22 10:37:31;;;;;;;18.62;12.02;;;;;;;;;;4455439;32;20230;-86
2022/10/22 10:40:14;;;;;;;18.67;15.13;;;;;;;;;;4456879;32;20244;-87
2022/10/22 10:42:46;;;;;;;20.05;13.50;;;;;;;;;;4454851;32;20552;-86
2022/10/22 10:45:18;;;;;;;19.33;13.18;;;;;;;;;;4454913;32;20262;-87
2022/10/22 10:48:18;;;;;;;19.85;14.25;;;;;;;;;;4455377;32;20220;-85
2022/10/22 10:50:54;;;;;;;14.60;12.13;;;;;;;;;;4443314;32;20251;-87
2022/10/22 10:53:29;;;;;;;17.02;13.07;;;;;;;;;;4455188;32;20698;-86
2022/10/22 10:56:03;;;;;;;27.42;14.50;;;;;;;;;;4454550;32;20228;-86
2022/10/22 10:58:41;;;;;;;26.85;14.27;;;;;;;;;;4455094;32;20220;-86
2022/10/22 11:01:15;;;;;;;19.27;12.82;;;;;;;;;;4454640;32;20280;-86
2022/10/22 11:04:23;;;;;;;18.23;13.10;;;;;;;;;;4455016;32;20213;-86
2022/10/22 11:06:53;;;;;;;19.87;13.57;;;;;;;;;;4452942;32;20669;-87
2022/10/22 11:09:27;;;;;;;17.52;14.82;;;;;;;;;;4454867;32;20226;-86
2022/10/22 11:11:59;;;;;;;18.65;12.45;;;;;;;;;;4455139;32;20332;-87
2022/10/22 11:14:32;;;;;;;21.62;12.30;;;;;;;;;;4454883;32;20225;-86
2022/10/22 11:17:04;;;;;;;13.80;10.80;;;;;;;;;;4455071;32;20196;-86
2022/10/22 11:19:37;;;;;;;17.33;12.48;;;;;;;;;;4454659;32;20205;-87
2022/10/22 11:22:09;;;;;;;17.62;14.15;;;;;;;;;;4454928;32;20287;-87
2022/10/22 11:24:41;;;;;;;17.48;12.43;;;;;;;;;;4454641;32;20216;-86
2022/10/22 11:27:18;;;;;;;16.58;11.88;;;;;;;;;;4454762;32;20212;-86
2022/10/22 11:29:50;;;;;;;12.88;10.73;;;;;;;;;;4454511;32;20211;-86
2022/10/22 11:32:19;;;;;;;18.30;11.48;;;;;;;;;;4454459;32;20332;-86
2022/10/22 11:34:49;;;;;;;19.80;11.52;;;;;;;;;;4453874;32;20205;-87
2022/10/22 11:37:17;;;;;;;24.17;11.93;;;;;;;;;;4453989;32;20216;-86
2022/10/22 11:39:48;;;;;;;14.77;10.75;;;;;;;;;;4454233;32;20720;-86
2022/10/22 11:42:21;;;;;;;20.92;13.50;;;;;;;;;;4454365;32;20224;-86
2022/10/22 11:44:58;;;;;;;20.42;14.13;;;;;;;;;;4454125;32;20242;-87
2022/10/22 11:47:27;;;;;;;21.02;13.20;;;;;;;;;;4455391;32;20218;-86
2022/10/22 11:50:02;;;;;;;22.27;12.23;;;;;;;;;;4453976;32;20277;-86
2022/10/22 11:52:40;;;;;;;17.40;10.82;;;;;;;;;;4454081;32;20259;-86
2022/10/22 11:55:44;;;;;;;30.58;12.55;;;;;;;;;;4454059;32;20221;-86
2022/10/22 11:58:27;;;;;;;19.55;11.27;;;;;;;;;;4449020;32;20247;-87
2022/10/22 12:00:55;;;;;;;19.70;10.65;;;;;;;;;;4453705;32;20294;-87
2022/10/22 12:03:39;;;;;;;13.60;10.02;;;;;;;;;;4453859;32;20617;-87
2022/10/22 12:06:19;;;;;;;22.30;13.75;;;;;;;;;;4453757;32;20673;-87
2022/10/22 12:08:51;;;;;;;16.15;12.02;;;;;;;;;;4454182;32;20200;-88
2022/10/22 12:11:22;;;;;;;18.65;11.12;;;;;;;;;;4453604;32;20662;-87
2022/10/22 12:14:01;;;;;;;12.45;10.10;;;;;;;;;;4454123;32;20702;-87
2022/10/22 12:16:35;;;;;;;10.70;8.60;;;;;;;;;;4453499;32;20221;-87
2022/10/22 12:19:05;;;;;;;11.75;8.40;;;;;;;;;;4454170;32;20204;-87
2022/10/22 12:21:33;;;;;;;14.70;9.68;;;;;;;;;;4453327;32;20273;-87
2022/10/22 12:24:01;;;;;;;23.50;8.90;;;;;;;;;;4454008;32;20220;-88
2022/10/22 12:26:30;;;;;;;9.95;8.07;;;;;;;;;;4453800;32;20217;-87
2022/10/22 12:28:59;;;;;;;22.80;8.75;;;;;;;;;;4453597;32;20209;-86
2022/10/22 12:31:26;;;;;;;10.50;8.05;;;;;;;;;;4453263;32;20236;-87
2022/10/22 12:33:57;;;;;;;12.80;7.97;;;;;;;;;;4453219;32;20272;-87
2022/10/22 12:36:26;;;;;;;11.07;8.15;;;;;;;;;;4453850;32;20292;-87
2022/10/22 12:38:53;;;;;;;11.88;8.70;;;;;;;;;;4453636;32;20272;-87
2022/10/22 12:41:21;;;;;;;11.73;8.77;;;;;;;;;;4453212;32;20276;-87
2022/10/22 12:43:48;;;;;;;13.48;8.20;;;;;;;;;;4453386;32;20254;-87
2022/10/22 12:46:16;;;;;;;13.25;7.72;;;;;;;;;;4452753;32;20336;-88
2022/10/22 12:48:45;;;;;;;13.88;9.23;;;;;;;;;;4453408;32;20217;-87
2022/10/22 12:51:16;;;;;;;10.45;8.77;;;;;;;;;;4453148;32;20515;-87
2022/10/22 12:53:46;;;;;;;16.45;8.40;;;;;;;;;;4453463;32;20200;-87
2022/10/22 12:56:16;;;;;;;12.55;9.05;;;;;;;;;;4452945;32;20232;-87
2022/10/22 12:58:45;;;;;;;19.62;12.48;;;;;;;;;;4452964;32;20274;-87
2022/10/22 13:01:14;;;;;;;13.52;9.95;;;;;;;;;;4452823;32;20221;-87
2022/10/22 13:03:44;;;;;;;17.30;9.52;;;;;;;;;;4453523;32;20231;-87
2022/10/22 13:06:13;;;;;;;10.07;7.87;;;;;;;;;;4454845;32;20603;-88
2022/10/22 13:08:40;;;;;;;20.75;9.98;;;;;;;;;;4453464;32;20226;-89
2022/10/22 13:11:09;;;;;;;10.90;8.73;;;;;;;;;;4452807;32;20292;-88
2022/10/22 13:13:44;;;;;;;17.60;10.02;;;;;;;;;;4452129;32;20231;-88
2022/10/22 13:16:19;;;;;;;12.95;10.20;;;;;;;;;;4452819;32;20258;-88
2022/10/22 13:18:48;;;;;;;15.55;10.10;;;;;;;;;;4453176;32;20616;-88
2022/10/22 13:21:33;;;;;;;13.25;9.65;;;;;;;;;;4452696;32;20291;-87
2022/10/22 13:24:01;;;;;;;20.75;10.13;;;;;;;;;;4453175;32;20621;-88
2022/10/22 13:26:34;;;;;;;15.32;10.25;;;;;;;;;;4452613;32;20600;-88
2022/10/22 13:29:02;;;;;;;11.98;9.18;;;;;;;;;;4452622;32;20212;-89
2022/10/22 13:31:32;;;;;;;16.25;10.10;;;;;;;;;;4452541;32;20221;-88
2022/10/22 13:34:04;;;;;;;18.20;9.43;;;;;;;;;;4452424;32;20240;-87
2022/10/22 13:36:31;;;;;;;19.50;10.77;;;;;;;;;;4452400;32;20221;-89
2022/10/22 13:38:58;;;;;;;16.67;10.55;;;;;;;;;;4452957;32;20269;-88
2022/10/22 13:41:27;;;;;;;16.35;10.80;;;;;;;;;;4452490;32;20224;-88
2022/10/22 13:43:54;;;;;;;17.48;10.55;;;;;;;;;;4452409;32;20212;-88
2022/10/22 13:46:25;;;;;;;23.67;9.95;;;;;;;;;;4452399;32;20613;-87
2022/10/22 13:48:55;;;;;;;20.00;11.43;;;;;;;;;;4452949;32;20209;-87
2022/10/22 13:51:27;;;;;;;13.45;11.00;;;;;;;;;;4452330;32;20283;-88
2022/10/22 13:53:54;;;;;;;18.27;11.73;;;;;;;;;;4452870;32;20332;-88
2022/10/22 13:56:22;;;;;;;17.52;11.60;;;;;;;;;;4452401;32;20224;-87
2022/10/22 13:58:49;;;;;;;14.38;10.63;;;;;;;;;;4452455;32;20242;-88
2022/10/22 14:01:20;;;;;;;18.90;10.25;;;;;;;;;;4452329;32;20642;-88
2022/10/22 14:03:48;;;;;;;20.98;10.18;;;;;;;;;;4452848;32;20217;-87
2022/10/22 14:06:17;;;;;;;13.02;10.43;;;;;;;;;;4452353;32;20292;-88
2022/10/22 14:08:48;;;;;;;19.08;9.85;;;;;;;;;;4451923;32;20220;-88
2022/10/22 14:11:15;;;;;;;18.58;10.90;;;;;;;;;;4452444;32;20232;-87
2022/10/22 14:13:41;;;;;;;17.17;11.18;;;;;;;;;;4452741;32;20208;-87
2022/10/22 14:16:16;;;;;;;18.05;11.12;;;;;;;;;;4452227;32;20265;-88
2022/10/22 14:18:43;;;;;;;26.15;11.00;;;;;;;;;;4452759;32;20272;-88
2022/10/22 14:21:13;;;;;;;34.60;11.32;;;;;;;;;;4452208;32;20638;-88
2022/10/22 14:23:41;;;;;;;22.87;14.38;;;;;;;;;;4452611;32;20205;-88
2022/10/22 14:26:17;;;;;;;22.95;11.75;;;;;;;;;;4454297;32;20224;-88
2022/10/22 14:28:44;;;;;;;23.27;14.70;;;;;;;;;;4455669;32;20270;-88
2022/10/22 14:31:11;;;;;;;25.12;12.95;;;;;;;;;;4455651;32;20233;-86
2022/10/22 14:33:39;;;;;;;21.15;14.00;;;;;;;;;;4455192;32;20609;-86
2022/10/22 14:36:07;;;;;;;21.08;13.95;;;;;;;;;;4456008;32;20706;-87